KAIA/AIA METAR and TAF weather

Enter ICAO airport designator
Station Type Date Time Source
KAIA METAR 2023/02/04 02:53 UTC NOAA

KAIA 040253Z AUTO 25015KT 10SM CLR 00/M06 A3004 RMK AO2 SLP208 T00001061 58007


Station Type Date Time Source
KAIA Decoded METAR 2023/02/04 02:53 UTC NOAA

ALLIANCE MUNICIPAL AIRPORT, NE, United States (KAIA) 42-03N 102-48W 1196M
Feb 03, 2023 - 09:53 PM EST / 2023.02.04 0253 UTC
Wind: from the WSW (250 degrees) at 17 MPH (15 KT):0
Visibility: 10 mile(s):0
Sky conditions: clear
Temperature: 32.0 F (0.0 C)
Windchill: 21 F (-6 C):1
Dew Point: 21.0 F (-6.1 C)
Relative Humidity: 63%
Pressure (altimeter): 30.04 in. Hg (1017 hPa)
Pressure tendency: 0.02 inches (0.7 hPa) lower than three hours ago
ob: KAIA 040253Z AUTO 25015KT 10SM CLR 00/M06 A3004 RMK AO2 SLP208 T00001061 58007
cycle: 3

Station Type Date Time Source
KAIA TAF 2023/02/03 18:22 UTC NOAA

TAF KAIA 031720Z 0318/0418 26011KT P6SM SCT250
FM040000 VRB05KT P6SM FEW250 WS020/30040KT
FM041400 28012G20KT P6SM BKN250

Example: see airport list